createdAt,value
2023-01-26T00:01:21.217Z,14.40
2023-01-26T00:03:50.465Z,13.60
2023-01-26T00:06:21.197Z,10.40
2023-01-26T00:08:52.642Z,12.00
2023-01-26T00:11:24.657Z,13.80
2023-01-26T00:13:53.533Z,12.20
2023-01-26T00:16:22.851Z,12.40
2023-01-26T00:18:51.495Z,15.80
2023-01-26T00:21:22.945Z,12.20
2023-01-26T00:23:53.720Z,13.20
2023-01-26T00:26:26.683Z,15.20
2023-01-26T00:28:55.904Z,14.60
2023-01-26T00:31:27.388Z,11.00
2023-01-26T00:33:57.640Z,16.00
2023-01-26T00:36:27.613Z,16.00
2023-01-26T00:38:57.791Z,12.40
2023-01-26T00:41:44.225Z,16.40
2023-01-26T00:44:12.756Z,17.20
2023-01-26T00:46:42.123Z,19.00
2023-01-26T00:49:10.878Z,15.40
2023-01-26T00:51:39.762Z,14.60
2023-01-26T00:54:09.752Z,14.00
2023-01-26T00:56:38.598Z,9.20
2023-01-26T00:59:07.790Z,17.40
2023-01-26T01:01:36.696Z,16.60
2023-01-26T01:04:05.345Z,17.00
2023-01-26T01:06:35.156Z,16.20
2023-01-26T01:09:03.798Z,14.60
2023-01-26T01:11:34.101Z,13.20
2023-01-26T01:14:02.754Z,11.60
2023-01-26T01:16:31.774Z,12.80
2023-01-26T01:19:00.456Z,14.20
2023-01-26T01:21:29.310Z,15.80
2023-01-26T01:23:57.907Z,14.40
2023-01-26T01:26:28.256Z,14.60
2023-01-26T01:28:58.555Z,17.60
2023-01-26T01:31:29.385Z,14.80
2023-01-26T01:33:58.719Z,16.80
2023-01-26T01:36:29.226Z,17.80
2023-01-26T01:38:58.255Z,14.20
2023-01-26T01:41:27.111Z,13.40
2023-01-26T01:44:15.356Z,16.20
2023-01-26T01:46:48.476Z,13.00
2023-01-26T01:49:21.345Z,12.00
2023-01-26T01:51:55.796Z,15.40
2023-01-26T01:54:29.997Z,15.00
2023-01-26T01:57:05.816Z,14.20
2023-01-26T01:59:36.629Z,13.60
2023-01-26T02:02:05.523Z,4.00
2023-01-26T02:04:34.489Z,15.00
2023-01-26T02:07:06.749Z,12.80
2023-01-26T02:09:56.928Z,14.20
2023-01-26T02:12:30.704Z,15.40
2023-01-26T02:15:02.520Z,16.00
2023-01-26T02:17:32.800Z,16.40
2023-01-26T02:20:06.273Z,9.80
2023-01-26T02:22:46.852Z,13.40
2023-01-26T02:25:26.966Z,14.80
2023-01-26T02:27:57.381Z,17.60
2023-01-26T02:30:28.358Z,13.60
2023-01-26T02:32:57.709Z,7.00
2023-01-26T02:35:26.853Z,13.80
2023-01-26T02:37:55.705Z,16.00
2023-01-26T02:40:31.181Z,13.80
2023-01-26T02:43:02.548Z,13.60
2023-01-26T02:45:32.556Z,14.00
2023-01-26T02:48:06.497Z,14.20
2023-01-26T02:50:36.531Z,15.20
2023-01-26T02:53:05.519Z,12.40
2023-01-26T02:55:33.066Z,12.20
2023-01-26T02:58:06.047Z,14.00
2023-01-26T03:00:38.222Z,13.00
2023-01-26T03:03:13.586Z,11.40
2023-01-26T03:05:42.429Z,13.00
2023-01-26T03:08:11.748Z,14.00
2023-01-26T03:10:40.522Z,9.00
2023-01-26T03:13:10.982Z,12.20
2023-01-26T03:15:48.083Z,11.80
2023-01-26T03:18:35.872Z,11.80
2023-01-26T03:21:24.466Z,14.00
2023-01-26T03:24:11.037Z,11.80
2023-01-26T03:26:58.121Z,14.60
2023-01-26T03:29:29.747Z,14.40
2023-01-26T03:32:01.869Z,13.20
2023-01-26T03:34:31.025Z,14.60
2023-01-26T03:37:00.036Z,9.60
2023-01-26T03:39:52.953Z,10.40
2023-01-26T03:42:38.806Z,11.00
2023-01-26T03:45:27.102Z,10.60
2023-01-26T03:48:22.377Z,14.00
2023-01-26T03:51:09.183Z,13.00
2023-01-26T03:53:55.288Z,5.00
2023-01-26T03:56:25.557Z,13.40
2023-01-26T03:59:08.414Z,15.40
2023-01-26T04:01:41.375Z,12.00
2023-01-26T04:04:29.662Z,15.20
2023-01-26T04:07:15.745Z,11.00
2023-01-26T04:09:49.676Z,10.40
2023-01-26T04:12:18.743Z,10.80
2023-01-26T04:15:17.089Z,12.20
2023-01-26T04:18:05.305Z,12.00
2023-01-26T04:20:51.491Z,11.80
2023-01-26T04:23:21.283Z,14.00
2023-01-26T04:25:52.243Z,12.40
2023-01-26T04:28:21.467Z,10.20
2023-01-26T04:30:50.457Z,13.00
2023-01-26T04:33:20.876Z,12.20
2023-01-26T04:35:49.808Z,14.00
2023-01-26T04:38:19.151Z,14.60
2023-01-26T04:40:54.796Z,10.20
2023-01-26T04:43:24.097Z,12.60
2023-01-26T04:46:00.179Z,10.40
2023-01-26T04:48:32.375Z,13.40
2023-01-26T04:51:02.640Z,14.80
2023-01-26T04:53:33.577Z,8.80
2023-01-26T04:56:02.568Z,11.00
2023-01-26T04:58:34.166Z,11.40
2023-01-26T05:01:03.357Z,14.00
2023-01-26T05:03:33.805Z,11.00
2023-01-26T05:06:02.517Z,11.80
2023-01-26T05:08:31.864Z,11.20
2023-01-26T05:11:01.940Z,11.40
2023-01-26T05:13:48.400Z,13.60
2023-01-26T05:16:35.630Z,14.80
2023-01-26T05:19:10.454Z,7.00
2023-01-26T05:21:47.749Z,11.00
2023-01-26T05:24:16.858Z,9.00
2023-01-26T05:27:22.464Z,12.40
2023-01-26T05:29:55.292Z,11.00
2023-01-26T05:32:24.344Z,12.40
2023-01-26T05:34:54.630Z,11.80
2023-01-26T05:37:25.831Z,10.00
2023-01-26T05:39:54.822Z,13.00
2023-01-26T05:42:24.122Z,14.00
2023-01-26T05:45:20.465Z,16.80
2023-01-26T05:47:51.092Z,11.40
2023-01-26T05:50:22.271Z,12.60
2023-01-26T05:53:10.884Z,17.20
2023-01-26T05:55:40.716Z,13.00
2023-01-26T05:58:09.395Z,12.40
2023-01-26T06:00:38.260Z,13.20
2023-01-26T06:03:11.960Z,11.20
2023-01-26T06:05:42.535Z,12.60
2023-01-26T06:08:23.541Z,9.60
2023-01-26T06:11:15.092Z,13.20
2023-01-26T06:14:02.174Z,12.20
2023-01-26T06:16:32.123Z,13.40
2023-01-26T06:19:01.295Z,13.40
2023-01-26T06:21:32.233Z,16.80
2023-01-26T06:24:01.559Z,12.60
2023-01-26T06:26:30.735Z,13.80
2023-01-26T06:29:00.324Z,14.40
2023-01-26T06:31:33.359Z,13.60
2023-01-26T06:34:03.099Z,18.20
2023-01-26T06:36:33.447Z,17.00
2023-01-26T06:39:02.709Z,14.60
2023-01-26T06:41:32.993Z,17.20
2023-01-26T06:44:02.567Z,20.40
2023-01-26T06:46:31.537Z,18.60
2023-01-26T06:49:02.700Z,17.80
2023-01-26T06:51:53.549Z,18.00
2023-01-26T06:54:23.400Z,18.00
2023-01-26T06:57:15.527Z,17.80
2023-01-26T06:59:57.364Z,14.80
2023-01-26T07:02:35.092Z,19.00
2023-01-26T07:05:04.066Z,19.00
2023-01-26T07:07:34.352Z,17.20
2023-01-26T07:10:02.957Z,24.00
2023-01-26T07:12:40.040Z,18.00
2023-01-26T07:15:09.646Z,21.60
2023-01-26T07:17:38.963Z,19.00
2023-01-26T07:20:09.178Z,17.20
2023-01-26T07:22:40.368Z,20.60
2023-01-26T07:25:09.457Z,14.60
2023-01-26T07:27:38.480Z,21.20
2023-01-26T07:30:08.835Z,27.20
2023-01-26T07:32:37.942Z,17.60
2023-01-26T07:35:07.357Z,18.60
2023-01-26T07:37:36.481Z,22.80
2023-01-26T07:40:07.693Z,18.00
2023-01-26T07:42:36.614Z,22.60
2023-01-26T07:45:09.792Z,18.60
2023-01-26T07:47:38.707Z,23.00
2023-01-26T07:50:07.973Z,22.40
2023-01-26T07:52:37.032Z,17.40
2023-01-26T07:55:08.106Z,22.20
2023-01-26T07:57:37.098Z,23.00
2023-01-26T08:00:06.646Z,20.40
2023-01-26T08:02:40.900Z,23.00
2023-01-26T08:05:10.520Z,18.00
2023-01-26T08:07:39.665Z,31.25
2023-01-26T08:10:12.731Z,23.00
2023-01-26T08:12:42.070Z,24.60
2023-01-26T08:15:11.832Z,29.25
2023-01-26T08:17:40.693Z,21.80
2023-01-26T08:20:11.106Z,25.40
2023-01-26T08:22:40.996Z,23.20
2023-01-26T08:25:11.876Z,20.80
2023-01-26T08:27:41.156Z,25.20
2023-01-26T08:30:11.578Z,28.20
2023-01-26T08:32:40.826Z,23.40
2023-01-26T08:35:10.403Z,23.20
2023-01-26T08:37:39.668Z,22.80
2023-01-26T08:40:10.958Z,24.60
2023-01-26T08:42:41.640Z,23.00
2023-01-26T08:45:11.311Z,35.60
2023-01-26T08:47:40.500Z,27.80
2023-01-26T08:50:10.860Z,21.40
2023-01-26T08:52:40.289Z,21.80
2023-01-26T08:55:09.756Z,23.20
2023-01-26T08:57:39.267Z,24.00
2023-01-26T09:00:11.453Z,23.40
2023-01-26T09:02:41.074Z,22.80
2023-01-26T09:05:11.058Z,23.20
2023-01-26T09:07:40.542Z,22.40
2023-01-26T09:10:12.657Z,23.20
2023-01-26T09:12:42.256Z,27.00
2023-01-26T09:15:12.831Z,31.20
2023-01-26T09:17:42.540Z,24.60
2023-01-26T09:20:12.454Z,24.80
2023-01-26T09:22:42.670Z,23.00
2023-01-26T09:25:11.863Z,22.20
2023-01-26T09:27:41.531Z,20.60
2023-01-26T09:30:13.144Z,21.00
2023-01-26T09:32:42.153Z,22.00
2023-01-26T09:35:14.278Z,17.00
2023-01-26T09:37:45.521Z,23.20
2023-01-26T09:40:20.952Z,16.20
2023-01-26T09:43:06.394Z,18.40
2023-01-26T09:45:43.627Z,16.60
2023-01-26T09:48:25.428Z,23.80
2023-01-26T09:50:59.295Z,21.80
2023-01-26T09:53:42.288Z,21.60
2023-01-26T09:56:16.755Z,25.75
2023-01-26T09:58:51.128Z,22.40
2023-01-26T10:01:29.270Z,27.40
2023-01-26T10:04:06.676Z,27.20
2023-01-26T10:06:38.319Z,20.00
2023-01-26T10:09:21.215Z,21.00
2023-01-26T10:11:53.759Z,11.80
2023-01-26T10:14:32.616Z,18.80
2023-01-26T10:17:04.821Z,24.80
2023-01-26T10:19:36.986Z,14.80
2023-01-26T10:22:11.487Z,17.80
2023-01-26T10:24:41.168Z,19.40
2023-01-26T10:27:14.263Z,20.40
2023-01-26T10:29:43.406Z,18.80
2023-01-26T10:32:16.237Z,21.80
2023-01-26T10:34:47.121Z,22.00
2023-01-26T10:37:22.156Z,19.60
2023-01-26T10:40:01.889Z,15.00
2023-01-26T10:42:33.303Z,10.20
2023-01-26T10:45:04.791Z,19.20
2023-01-26T10:47:35.031Z,20.00
2023-01-26T10:50:23.110Z,21.00
2023-01-26T10:53:02.820Z,20.40
2023-01-26T10:55:33.979Z,20.00
2023-01-26T10:58:02.911Z,18.00
2023-01-26T11:00:33.528Z,21.60
2023-01-26T11:03:08.098Z,14.40
2023-01-26T11:05:37.211Z,24.40
2023-01-26T11:08:33.894Z,28.40
2023-01-26T11:11:04.150Z,27.20
2023-01-26T11:13:32.742Z,25.60
2023-01-26T11:16:13.610Z,14.80
2023-01-26T11:18:55.571Z,29.40
2023-01-26T11:21:32.157Z,18.40
2023-01-26T11:24:06.364Z,24.60
2023-01-26T11:27:03.860Z,17.40
2023-01-26T11:29:54.939Z,20.60
2023-01-26T11:32:31.732Z,22.00
2023-01-26T11:35:14.250Z,24.80
2023-01-26T11:37:53.068Z,20.40
2023-01-26T11:40:31.245Z,23.40
2023-01-26T11:43:19.842Z,20.20
2023-01-26T11:46:09.753Z,26.60
2023-01-26T11:48:52.792Z,22.00
2023-01-26T11:51:36.832Z,22.00
2023-01-26T11:54:30.222Z,16.00
2023-01-26T11:57:13.910Z,16.20
2023-01-26T11:59:48.494Z,22.20
2023-01-26T12:02:29.664Z,20.60
2023-01-26T12:05:03.415Z,21.00
2023-01-26T12:07:51.408Z,15.00
2023-01-26T12:10:28.686Z,12.60
2023-01-26T12:13:07.026Z,16.80
2023-01-26T12:15:39.717Z,18.00
2023-01-26T12:18:20.497Z,21.60
2023-01-26T12:20:55.465Z,18.80
2023-01-26T12:23:33.551Z,16.80
2023-01-26T12:26:08.994Z,21.80
2023-01-26T12:28:46.982Z,23.60
2023-01-26T12:31:23.942Z,23.20
2023-01-26T12:33:56.032Z,24.00
2023-01-26T12:36:36.673Z,16.00
2023-01-26T12:39:14.238Z,23.80
2023-01-26T12:42:02.855Z,22.80
2023-01-26T12:44:39.821Z,18.80
2023-01-26T12:47:18.921Z,18.00
2023-01-26T12:49:56.393Z,18.60
2023-01-26T12:52:33.445Z,17.40
2023-01-26T12:55:14.317Z,15.60
2023-01-26T12:57:50.503Z,23.25
2023-01-26T13:00:22.473Z,25.25
2023-01-26T13:02:58.022Z,18.20
2023-01-26T13:05:29.638Z,22.50
2023-01-26T13:07:58.921Z,20.20
2023-01-26T13:10:44.933Z,21.20
2023-01-26T13:13:32.157Z,21.20
2023-01-26T13:16:43.562Z,26.25
2023-01-26T13:19:35.978Z,24.00
2023-01-26T13:22:05.127Z,33.25
2023-01-26T13:24:44.600Z,29.25
2023-01-26T13:27:35.119Z,25.75
2023-01-26T13:30:05.208Z,28.25
2023-01-26T13:33:06.476Z,24.75
2023-01-26T13:35:36.959Z,31.25
2023-01-26T13:38:15.544Z,26.25
2023-01-26T13:40:48.113Z,28.75
2023-01-26T13:44:07.680Z,33.40
2023-01-26T13:46:42.159Z,22.75
2023-01-26T13:49:26.061Z,26.75
2023-01-26T13:51:55.185Z,34.50
2023-01-26T13:54:25.120Z,29.25
2023-01-26T13:57:05.964Z,27.25
2023-01-26T13:59:35.728Z,28.50
2023-01-26T14:02:23.952Z,28.00
2023-01-26T14:04:55.496Z,35.25
2023-01-26T14:07:28.409Z,34.75
2023-01-26T14:10:02.169Z,26.50
2023-01-26T14:12:34.735Z,28.75
2023-01-26T14:15:07.355Z,28.75
2023-01-26T14:17:48.033Z,26.25
2023-01-26T14:20:25.664Z,27.25
2023-01-26T14:23:05.146Z,27.50
2023-01-26T14:25:34.820Z,26.50
2023-01-26T14:28:03.972Z,9.50
2023-01-26T14:30:34.545Z,26.75
2023-01-26T14:33:09.319Z,26.75
2023-01-26T14:35:38.114Z,23.25
2023-01-26T14:38:15.394Z,26.50
2023-01-26T14:40:45.824Z,25.75
2023-01-26T14:43:15.723Z,29.75
2023-01-26T14:45:50.628Z,32.50
2023-01-26T14:48:31.075Z,21.75
2023-01-26T14:51:01.708Z,33.75
2023-01-26T14:53:31.277Z,32.50
2023-01-26T14:56:00.056Z,29.75
2023-01-26T14:58:31.669Z,35.50
2023-01-26T15:01:03.191Z,40.50
2023-01-26T15:03:37.399Z,30.00
2023-01-26T15:06:18.345Z,37.75
2023-01-26T15:09:02.401Z,40.00
2023-01-26T15:11:53.779Z,39.75
2023-01-26T15:14:35.338Z,31.00
2023-01-26T15:17:05.435Z,33.50
2023-01-26T15:19:42.087Z,26.25
2023-01-26T15:22:22.054Z,28.00
2023-01-26T15:25:02.190Z,31.75
2023-01-26T15:27:35.266Z,31.50
2023-01-26T15:30:08.070Z,26.25
2023-01-26T15:32:41.172Z,29.75
2023-01-26T15:35:23.366Z,23.50
2023-01-26T15:38:02.150Z,29.25
2023-01-26T15:40:32.629Z,29.50
2023-01-26T15:44:14.582Z,22.75
2023-01-26T15:48:48.113Z,21.60
2023-01-26T15:52:14.835Z,13.50
2023-01-26T15:54:44.171Z,24.00
2023-01-26T15:57:13.876Z,27.00
2023-01-26T15:59:42.422Z,19.40
2023-01-26T16:02:39.349Z,27.25
2023-01-26T16:06:52.334Z,30.00
2023-01-26T16:10:14.147Z,27.00
2023-01-26T16:12:44.023Z,29.25
2023-01-26T16:15:28.638Z,29.25
2023-01-26T16:18:22.868Z,25.80
2023-01-26T16:20:52.627Z,23.60
2023-01-26T16:23:23.539Z,22.00
2023-01-26T16:25:54.631Z,24.20
2023-01-26T16:28:23.705Z,27.75
2023-01-26T16:30:52.756Z,27.50
2023-01-26T16:33:22.096Z,23.20
2023-01-26T16:35:50.994Z,17.00
2023-01-26T16:38:19.711Z,21.40
2023-01-26T16:40:50.694Z,20.20
2023-01-26T16:43:24.081Z,26.50
2023-01-26T16:45:53.734Z,21.75
2023-01-26T16:48:23.698Z,22.40
2023-01-26T16:50:54.555Z,10.20
2023-01-26T16:53:27.453Z,27.20
2023-01-26T16:55:56.563Z,25.00
2023-01-26T16:58:27.353Z,18.60
2023-01-26T17:00:56.597Z,24.80
2023-01-26T17:03:25.706Z,24.60
2023-01-26T17:05:55.988Z,23.75
2023-01-26T17:08:24.724Z,29.25
2023-01-26T17:11:02.112Z,21.80
2023-01-26T17:13:33.658Z,21.75
2023-01-26T17:16:03.399Z,26.75
2023-01-26T17:18:33.548Z,19.75
2023-01-26T17:21:04.161Z,46.00
2023-01-26T17:23:32.942Z,27.50
2023-01-26T17:26:02.189Z,25.20
2023-01-26T17:28:32.539Z,25.80
2023-01-26T17:31:01.765Z,28.00
2023-01-26T17:33:31.012Z,27.75
2023-01-26T17:36:03.513Z,27.75
2023-01-26T17:38:32.467Z,31.25
2023-01-26T17:41:01.713Z,22.80
2023-01-26T17:43:30.864Z,23.00
2023-01-26T17:46:05.958Z,18.80
2023-01-26T17:48:35.500Z,20.80
2023-01-26T17:51:07.129Z,27.40
2023-01-26T17:53:38.606Z,29.75
2023-01-26T17:56:08.663Z,29.50
2023-01-26T17:58:37.957Z,58.00
2023-01-26T18:01:09.783Z,45.00
2023-01-26T18:03:42.111Z,32.50
2023-01-26T18:06:11.547Z,22.60
2023-01-26T18:08:41.405Z,26.25
2023-01-26T18:11:12.582Z,30.25
2023-01-26T18:13:41.934Z,26.60
2023-01-26T18:16:16.396Z,31.50
2023-01-26T18:18:45.457Z,29.50
2023-01-26T18:21:17.145Z,31.00
2023-01-26T18:23:47.306Z,33.25
2023-01-26T18:26:17.392Z,65.50
2023-01-26T18:28:46.731Z,34.50
2023-01-26T18:31:20.249Z,31.00
2023-01-26T18:33:49.630Z,39.25
2023-01-26T18:36:20.928Z,37.25
2023-01-26T18:38:52.097Z,37.50
2023-01-26T18:41:23.668Z,37.75
2023-01-26T18:43:53.398Z,36.25
2023-01-26T18:46:24.059Z,35.75
2023-01-26T18:48:54.381Z,45.75
2023-01-26T18:51:23.450Z,36.50
2023-01-26T18:53:52.141Z,36.00
2023-01-26T18:56:20.988Z,33.60
2023-01-26T18:58:52.905Z,34.75
2023-01-26T19:01:23.586Z,30.80
2023-01-26T19:03:55.659Z,37.50
2023-01-26T19:06:26.033Z,34.25
2023-01-26T19:08:58.693Z,37.50
2023-01-26T19:11:29.240Z,51.75
2023-01-26T19:13:59.312Z,45.00
2023-01-26T19:16:30.707Z,39.75
2023-01-26T19:18:59.732Z,22.25
2023-01-26T19:21:29.611Z,28.00
2023-01-26T19:24:02.478Z,39.00
2023-01-26T19:26:31.685Z,42.25
2023-01-26T19:29:00.437Z,39.50
2023-01-26T19:31:32.093Z,46.50
2023-01-26T19:34:02.531Z,25.25
2023-01-26T19:36:33.542Z,33.00
2023-01-26T19:39:02.610Z,48.25
2023-01-26T19:41:31.502Z,65.25
2023-01-26T19:44:00.919Z,35.75
2023-01-26T19:46:31.365Z,33.25
2023-01-26T19:48:59.956Z,33.25
2023-01-26T19:51:29.461Z,33.25
2023-01-26T19:54:00.232Z,28.00
2023-01-26T19:56:30.974Z,26.40
2023-01-26T19:59:01.976Z,29.50
2023-01-26T20:01:32.903Z,31.50
2023-01-26T20:04:03.032Z,35.00
2023-01-26T20:06:34.389Z,35.00
2023-01-26T20:09:04.714Z,29.25
2023-01-26T20:11:34.319Z,38.00
2023-01-26T20:14:05.831Z,36.25
2023-01-26T20:16:36.462Z,44.75
2023-01-26T20:19:06.867Z,42.75
2023-01-26T20:21:37.077Z,35.00
2023-01-26T20:24:06.979Z,41.50
2023-01-26T20:26:36.638Z,38.75
2023-01-26T20:29:05.505Z,32.75
2023-01-26T20:31:36.485Z,37.50
2023-01-26T20:34:05.054Z,42.00
2023-01-26T20:36:35.314Z,29.00
2023-01-26T20:39:04.796Z,34.00
2023-01-26T20:41:34.474Z,58.50
2023-01-26T20:44:05.825Z,46.25
2023-01-26T20:46:37.940Z,47.00
2023-01-26T20:49:08.844Z,35.75
2023-01-26T20:51:39.520Z,33.00
2023-01-26T20:54:08.813Z,33.50
2023-01-26T20:56:38.367Z,34.75
2023-01-26T20:59:08.742Z,36.75
2023-01-26T21:01:39.055Z,41.00
2023-01-26T21:04:07.837Z,31.50
2023-01-26T21:06:38.986Z,37.25
2023-01-26T21:09:08.072Z,39.00
2023-01-26T21:11:37.574Z,31.20
2023-01-26T21:14:06.226Z,34.60
2023-01-26T21:16:36.146Z,27.80
2023-01-26T21:19:06.190Z,36.25
2023-01-26T21:21:35.729Z,29.80
2023-01-26T21:24:04.602Z,28.00
2023-01-26T21:26:34.996Z,28.00
2023-01-26T21:29:04.312Z,14.75
2023-01-26T21:31:34.867Z,30.00
2023-01-26T21:34:03.977Z,32.00
2023-01-26T21:36:35.153Z,28.50
2023-01-26T21:39:04.303Z,26.40
2023-01-26T21:41:51.601Z,28.20
2023-01-26T21:44:21.896Z,32.50
2023-01-26T21:46:53.017Z,33.25
2023-01-26T21:49:22.506Z,33.00
2023-01-26T21:52:11.415Z,27.80
2023-01-26T21:54:40.921Z,30.50
2023-01-26T21:57:25.524Z,26.20
2023-01-26T21:59:54.037Z,26.40
2023-01-26T22:02:23.395Z,31.20
2023-01-26T22:04:54.054Z,31.75
2023-01-26T22:07:24.597Z,26.00
2023-01-26T22:09:53.145Z,30.25
2023-01-26T22:12:24.073Z,37.50
2023-01-26T22:14:53.018Z,33.25
2023-01-26T22:17:21.865Z,45.50
2023-01-26T22:19:51.524Z,38.00
2023-01-26T22:22:20.324Z,26.75
2023-01-26T22:24:50.357Z,36.50
2023-01-26T22:27:19.401Z,31.80
2023-01-26T22:29:47.919Z,29.50
2023-01-26T22:32:17.019Z,31.75
2023-01-26T22:34:45.671Z,34.50
2023-01-26T22:37:15.367Z,30.20
2023-01-26T22:39:44.802Z,29.25
2023-01-26T22:42:15.053Z,28.75
2023-01-26T22:44:43.683Z,25.20
2023-01-26T22:47:12.862Z,25.00
2023-01-26T22:49:41.408Z,30.50
2023-01-26T22:52:10.288Z,30.25
2023-01-26T22:54:38.851Z,32.25
2023-01-26T22:57:07.846Z,25.50
2023-01-26T22:59:37.876Z,36.50
2023-01-26T23:02:06.699Z,34.25
2023-01-26T23:04:35.303Z,33.50
2023-01-26T23:07:04.104Z,27.00
2023-01-26T23:09:32.653Z,24.40
2023-01-26T23:12:02.646Z,27.00
2023-01-26T23:14:32.029Z,26.00
2023-01-26T23:17:02.471Z,27.00
2023-01-26T23:19:31.106Z,29.00
2023-01-26T23:21:59.834Z,26.75
2023-01-26T23:24:29.174Z,29.25
2023-01-26T23:26:57.997Z,31.50
2023-01-26T23:29:26.933Z,27.00
2023-01-26T23:31:55.958Z,30.75
2023-01-26T23:34:26.003Z,32.50
2023-01-26T23:36:54.896Z,40.00
2023-01-26T23:39:23.464Z,35.75
2023-01-26T23:41:52.302Z,33.50
2023-01-26T23:44:20.863Z,33.75
2023-01-26T23:46:50.149Z,32.50
2023-01-26T23:49:18.801Z,36.00
2023-01-26T23:51:49.014Z,27.60
2023-01-26T23:54:17.770Z,29.00
2023-01-26T23:56:46.696Z,30.20
2023-01-26T23:59:15.300Z,32.75
